createdAt,value
2023-07-25T00:01:09.477Z,9.50
2023-07-25T00:03:36.479Z,8.20
2023-07-25T00:06:07.869Z,7.97
2023-07-25T00:08:34.597Z,6.50
2023-07-25T00:11:01.823Z,7.93
2023-07-25T00:13:29.062Z,7.78
2023-07-25T00:15:56.414Z,6.60
2023-07-25T00:18:23.158Z,9.65
2023-07-25T00:20:49.917Z,7.70
2023-07-25T00:23:17.269Z,8.30
2023-07-25T00:25:43.896Z,9.23
2023-07-25T00:28:10.515Z,8.40
2023-07-25T00:30:37.258Z,8.38
2023-07-25T00:33:03.995Z,6.90
2023-07-25T00:35:30.747Z,7.10
2023-07-25T00:37:57.519Z,7.43
2023-07-25T00:40:24.188Z,7.40
2023-07-25T00:42:56.977Z,8.45
2023-07-25T00:45:25.367Z,9.00
2023-07-25T00:47:53.656Z,9.77
2023-07-25T00:50:20.481Z,6.90
2023-07-25T00:52:48.237Z,9.20
2023-07-25T00:55:14.999Z,6.57
2023-07-25T00:57:42.349Z,7.18
2023-07-25T01:00:09.448Z,7.22
2023-07-25T01:02:36.635Z,7.43
2023-07-25T01:05:03.479Z,9.05
2023-07-25T01:07:31.449Z,6.93
2023-07-25T01:09:58.235Z,6.07
2023-07-25T01:12:25.697Z,9.63
2023-07-25T01:14:52.633Z,6.85
2023-07-25T01:17:22.486Z,8.23
2023-07-25T01:19:50.963Z,7.45
2023-07-25T01:22:19.332Z,8.20
2023-07-25T01:24:48.034Z,7.80
2023-07-25T01:27:16.327Z,6.60
2023-07-25T01:29:43.470Z,6.97
2023-07-25T01:32:10.918Z,6.65
2023-07-25T01:34:38.401Z,7.03
2023-07-25T01:37:07.052Z,8.02
2023-07-25T01:39:33.835Z,8.82
2023-07-25T01:42:00.491Z,7.35
2023-07-25T01:44:27.709Z,8.88
2023-07-25T01:46:56.316Z,8.52
2023-07-25T01:49:23.216Z,7.18
2023-07-25T01:51:50.740Z,7.03
2023-07-25T01:54:20.296Z,7.28
2023-07-25T01:56:50.357Z,7.65
2023-07-25T01:59:18.058Z,7.57
2023-07-25T02:01:44.781Z,8.48
2023-07-25T02:04:11.537Z,8.02
2023-07-25T02:06:39.065Z,8.23
2023-07-25T02:09:05.660Z,7.00
2023-07-25T02:11:33.367Z,9.00
2023-07-25T02:14:00.242Z,7.10
2023-07-25T02:16:26.928Z,8.40
2023-07-25T02:18:53.664Z,10.55
2023-07-25T02:21:21.087Z,9.35
2023-07-25T02:23:47.890Z,12.43
2023-07-25T02:28:46.135Z,8.75
2023-07-25T02:31:12.841Z,8.95
2023-07-25T02:33:42.220Z,8.10
2023-07-25T02:36:09.051Z,9.13
2023-07-25T02:38:35.646Z,9.68
2023-07-25T02:41:02.316Z,9.32
2023-07-25T02:43:29.178Z,8.02
2023-07-25T02:45:55.834Z,9.48
2023-07-25T02:48:22.549Z,9.43
2023-07-25T02:50:49.986Z,7.63
2023-07-25T02:53:16.771Z,9.63
2023-07-25T02:55:43.424Z,10.02
2023-07-25T02:58:10.270Z,11.45
2023-07-25T03:00:36.941Z,9.25
2023-07-25T03:03:03.734Z,9.00
2023-07-25T03:05:31.045Z,8.45
2023-07-25T03:07:58.290Z,8.20
2023-07-25T03:10:25.089Z,7.65
2023-07-25T03:12:53.353Z,8.85
2023-07-25T03:15:21.438Z,8.75
2023-07-25T03:17:48.328Z,9.52
2023-07-25T03:20:15.092Z,9.15
2023-07-25T03:22:42.024Z,9.60
2023-07-25T03:25:09.724Z,8.05
2023-07-25T03:27:37.438Z,10.23
2023-07-25T03:30:05.391Z,10.00
2023-07-25T03:32:32.067Z,8.68
2023-07-25T03:34:59.345Z,12.10
2023-07-25T03:37:26.049Z,11.75
2023-07-25T03:39:53.116Z,8.30
2023-07-25T03:42:19.784Z,9.75
2023-07-25T03:44:47.009Z,8.68
2023-07-25T03:47:13.639Z,10.23
2023-07-25T03:49:40.690Z,9.65
2023-07-25T03:52:08.247Z,8.68
2023-07-25T03:54:34.879Z,8.77
2023-07-25T03:57:03.544Z,11.60
2023-07-25T03:59:30.307Z,8.43
2023-07-25T04:01:57.753Z,9.23
2023-07-25T04:04:24.659Z,10.70
2023-07-25T04:06:51.402Z,9.23
2023-07-25T04:09:18.178Z,9.25
2023-07-25T04:11:44.916Z,9.15
2023-07-25T04:14:11.585Z,9.13
2023-07-25T04:16:38.376Z,8.18
2023-07-25T04:19:05.250Z,9.55
2023-07-25T04:21:32.042Z,8.75
2023-07-25T04:23:58.853Z,7.88
2023-07-25T04:26:25.478Z,9.20
2023-07-25T04:28:52.121Z,9.00
2023-07-25T04:31:18.686Z,9.27
2023-07-25T04:33:45.645Z,8.98
2023-07-25T04:36:12.322Z,9.40
2023-07-25T04:38:42.346Z,8.77
2023-07-25T04:41:09.715Z,8.85
2023-07-25T04:43:36.370Z,8.90
2023-07-25T04:46:03.625Z,9.77
2023-07-25T04:48:30.471Z,9.57
2023-07-25T04:50:57.121Z,8.98
2023-07-25T04:53:24.502Z,11.80
2023-07-25T04:55:51.166Z,11.27
2023-07-25T04:58:17.817Z,9.25
2023-07-25T05:00:45.007Z,9.88
2023-07-25T05:03:11.936Z,11.70
2023-07-25T05:05:38.709Z,11.18
2023-07-25T05:08:05.520Z,11.15
2023-07-25T05:10:32.941Z,8.40
2023-07-25T05:12:59.550Z,10.88
2023-07-25T05:15:26.375Z,10.10
2023-07-25T05:17:53.849Z,10.48
2023-07-25T05:20:20.522Z,9.57
2023-07-25T05:22:47.257Z,10.20
2023-07-25T05:25:13.914Z,8.98
2023-07-25T05:27:40.562Z,10.20
2023-07-25T05:30:07.842Z,9.45
2023-07-25T05:32:37.534Z,10.43
2023-07-25T05:35:04.773Z,11.43
2023-07-25T05:37:38.951Z,9.68
2023-07-25T05:40:07.045Z,10.40
2023-07-25T05:42:34.041Z,10.00
2023-07-25T05:45:01.522Z,8.73
2023-07-25T05:47:29.098Z,9.88
2023-07-25T05:49:56.365Z,9.57
2023-07-25T05:52:23.241Z,8.90
2023-07-25T05:54:50.371Z,9.43
2023-07-25T05:57:17.116Z,8.93
2023-07-25T05:59:45.067Z,12.95
2023-07-25T06:02:12.328Z,9.68
2023-07-25T06:04:39.855Z,9.43
2023-07-25T06:07:07.495Z,9.35
2023-07-25T06:09:34.244Z,11.52
2023-07-25T06:12:00.886Z,9.55
2023-07-25T06:14:27.615Z,9.05
2023-07-25T06:16:54.297Z,9.15
2023-07-25T06:19:21.161Z,10.35
2023-07-25T06:21:48.650Z,10.90
2023-07-25T06:24:15.429Z,9.30
2023-07-25T06:26:42.158Z,8.45
2023-07-25T06:29:08.987Z,11.13
2023-07-25T06:31:36.668Z,9.98
2023-07-25T06:34:03.466Z,8.35
2023-07-25T06:36:30.303Z,10.27
2023-07-25T06:38:56.946Z,8.77
2023-07-25T06:41:23.737Z,9.02
2023-07-25T06:43:51.416Z,9.13
2023-07-25T06:46:18.139Z,10.80
2023-07-25T06:48:44.800Z,10.45
2023-07-25T06:51:12.410Z,11.13
2023-07-25T06:53:42.353Z,9.05
2023-07-25T06:56:09.105Z,10.10
2023-07-25T06:58:35.994Z,8.88
2023-07-25T07:01:02.618Z,7.60
2023-07-25T07:03:29.302Z,8.48
2023-07-25T07:05:57.287Z,8.55
2023-07-25T07:08:24.244Z,8.40
2023-07-25T07:10:55.536Z,9.52
2023-07-25T07:13:23.780Z,11.07
2023-07-25T07:15:50.887Z,8.60
2023-07-25T07:18:17.752Z,9.65
2023-07-25T07:20:51.910Z,9.60
2023-07-25T07:23:18.652Z,10.00
2023-07-25T07:25:46.122Z,8.45
2023-07-25T07:28:14.753Z,9.85
2023-07-25T07:30:41.615Z,9.18
2023-07-25T07:33:08.498Z,6.55
2023-07-25T07:35:35.345Z,9.52
2023-07-25T07:38:02.105Z,9.10
2023-07-25T07:40:29.975Z,10.20
2023-07-25T07:42:56.951Z,9.95
2023-07-25T07:45:25.141Z,9.43
2023-07-25T07:47:52.308Z,7.95
2023-07-25T07:50:20.421Z,6.97
2023-07-25T07:52:47.479Z,6.55
2023-07-25T07:55:14.921Z,6.70
2023-07-25T07:57:44.552Z,6.85
2023-07-25T08:00:14.681Z,6.88
2023-07-25T08:02:42.564Z,6.75
2023-07-25T08:05:10.280Z,8.07
2023-07-25T08:07:37.081Z,6.88
2023-07-25T08:10:04.462Z,6.53
2023-07-25T08:12:32.107Z,5.93
2023-07-25T08:14:58.882Z,7.43
2023-07-25T08:17:25.845Z,6.50
2023-07-25T08:19:52.748Z,10.65
2023-07-25T08:22:19.369Z,6.45
2023-07-25T08:24:46.771Z,6.50
2023-07-25T08:27:13.563Z,6.93
2023-07-25T08:29:41.925Z,6.68
2023-07-25T08:32:12.487Z,6.93
2023-07-25T08:34:40.731Z,6.13
2023-07-25T08:37:07.941Z,6.22
2023-07-25T08:39:35.261Z,7.65
2023-07-25T08:42:06.513Z,7.25
2023-07-25T08:44:36.474Z,7.07
2023-07-25T08:47:13.749Z,5.35
2023-07-25T08:49:42.589Z,6.15
2023-07-25T08:52:10.884Z,6.28
2023-07-25T08:54:38.684Z,6.35
2023-07-25T08:57:06.096Z,6.90
2023-07-25T08:59:33.244Z,5.97
2023-07-25T09:02:02.393Z,7.78
2023-07-25T09:04:29.484Z,6.13
2023-07-25T09:06:56.409Z,6.57
2023-07-25T09:09:24.300Z,5.00
2023-07-25T09:11:51.576Z,5.95
2023-07-25T09:14:19.140Z,5.53
2023-07-25T09:16:45.853Z,5.93
2023-07-25T09:19:13.042Z,4.82
2023-07-25T09:21:50.624Z,5.15
2023-07-25T09:24:17.356Z,4.90
2023-07-25T09:26:52.446Z,5.07
2023-07-25T09:29:21.887Z,4.53
2023-07-25T10:18:44.497Z,7.13
2023-07-25T10:29:50.796Z,4.93
2023-07-25T10:32:23.400Z,4.93
2023-07-25T11:08:42.914Z,6.53
2023-07-25T11:11:14.187Z,6.05
2023-07-25T11:13:46.168Z,4.63
2023-07-25T11:16:15.242Z,5.60
2023-07-25T11:18:52.554Z,5.22
2023-07-25T11:21:19.831Z,5.43
2023-07-25T11:23:46.597Z,6.10
2023-07-25T11:26:14.512Z,6.40
2023-07-25T11:28:42.419Z,5.63
2023-07-25T11:31:09.797Z,5.95
2023-07-25T11:33:43.080Z,8.80
2023-07-25T11:36:09.891Z,4.47
2023-07-25T11:38:37.286Z,5.95
2023-07-25T11:41:06.524Z,8.57
2023-07-25T11:43:33.644Z,4.57
2023-07-25T11:46:04.608Z,6.10
2023-07-25T11:48:32.705Z,5.30
2023-07-25T11:51:00.140Z,7.00
2023-07-25T11:53:29.194Z,4.80
2023-07-25T11:55:57.125Z,6.30
2023-07-25T11:58:24.208Z,5.18
2023-07-25T12:00:55.843Z,6.15
2023-07-25T12:03:24.906Z,6.10
2023-07-25T12:05:59.092Z,6.88
2023-07-25T12:08:42.586Z,6.80
2023-07-25T12:11:11.799Z,4.45
2023-07-25T12:13:56.958Z,5.07
2023-07-25T12:16:33.182Z,10.75
2023-07-25T12:19:03.039Z,5.25
2023-07-25T12:21:32.058Z,5.40
2023-07-25T12:24:05.728Z,8.75
2023-07-25T12:26:55.911Z,6.38
2023-07-25T12:29:31.487Z,7.00
2023-07-25T12:32:28.202Z,7.53
2023-07-25T12:35:08.080Z,5.22
2023-07-25T12:37:35.107Z,7.78
2023-07-25T12:40:05.449Z,7.68
2023-07-25T12:42:32.205Z,6.47
2023-07-25T12:45:02.447Z,6.90
2023-07-25T12:47:29.129Z,4.53
2023-07-25T12:49:55.997Z,10.27
2023-07-25T12:52:22.749Z,6.53
2023-07-25T12:54:49.420Z,7.85
2023-07-25T12:57:16.174Z,14.35
2023-07-25T12:59:43.469Z,6.82
2023-07-25T13:02:13.336Z,6.03
2023-07-25T13:04:40.128Z,6.32
2023-07-25T13:07:07.738Z,7.47
2023-07-25T13:09:37.531Z,9.30
2023-07-25T13:12:04.775Z,8.60
2023-07-25T13:14:31.616Z,8.68
2023-07-25T13:16:58.629Z,6.40
2023-07-25T13:19:25.393Z,9.85
2023-07-25T13:21:52.958Z,7.28
2023-07-25T13:24:19.740Z,6.55
2023-07-25T13:26:47.032Z,9.23
2023-07-25T13:29:15.317Z,6.25
2023-07-25T13:31:42.053Z,7.28
2023-07-25T13:34:09.419Z,7.80
2023-07-25T13:36:36.221Z,7.53
2023-07-25T13:39:02.935Z,7.65
2023-07-25T13:41:30.054Z,7.13
2023-07-25T13:43:57.305Z,6.00
2023-07-25T13:46:24.165Z,6.75
2023-07-25T13:48:52.470Z,7.10
2023-07-25T13:51:19.204Z,8.25
2023-07-25T13:53:45.890Z,8.25
2023-07-25T13:56:13.337Z,8.23
2023-07-25T13:58:42.650Z,7.78
2023-07-25T14:01:09.366Z,6.93
2023-07-25T14:03:36.124Z,6.18
2023-07-25T14:06:02.833Z,8.63
2023-07-25T14:08:29.593Z,6.65
2023-07-25T14:10:56.388Z,7.40
2023-07-25T14:13:23.855Z,16.13
2023-07-25T14:15:52.107Z,9.43
2023-07-25T14:18:19.550Z,8.15
2023-07-25T14:20:47.373Z,7.93
2023-07-25T14:23:14.153Z,9.45
2023-07-25T14:25:41.117Z,6.90
2023-07-25T14:28:07.924Z,8.85
2023-07-25T14:30:35.693Z,7.60
2023-07-25T14:33:02.726Z,8.27
2023-07-25T14:35:30.159Z,8.02
2023-07-25T14:37:58.617Z,7.65
2023-07-25T14:40:26.689Z,9.30
2023-07-25T14:42:54.157Z,8.32
2023-07-25T14:45:21.088Z,5.97
2023-07-25T14:47:47.943Z,8.30
2023-07-25T14:50:14.848Z,8.95
2023-07-25T14:52:42.021Z,9.38
2023-07-25T14:55:09.633Z,10.75
2023-07-25T14:57:36.372Z,8.50
2023-07-25T15:00:03.169Z,7.32
2023-07-25T15:02:30.058Z,7.57
2023-07-25T15:04:56.858Z,7.22
2023-07-25T15:07:23.441Z,7.10
2023-07-25T15:09:50.056Z,7.45
2023-07-25T15:12:16.995Z,8.07
2023-07-25T15:14:43.953Z,6.72
2023-07-25T15:17:19.565Z,8.63
2023-07-25T15:19:46.273Z,5.97
2023-07-25T15:22:13.025Z,8.20
2023-07-25T15:24:39.882Z,8.60
2023-07-25T15:27:07.255Z,7.10
2023-07-25T15:29:33.940Z,9.85
2023-07-25T15:32:03.200Z,9.45
2023-07-25T15:34:29.822Z,15.02
2023-07-25T15:36:57.219Z,16.38
2023-07-25T15:39:24.116Z,15.55
2023-07-25T15:41:50.733Z,13.18
2023-07-25T15:44:17.363Z,11.05
2023-07-25T15:46:44.548Z,10.35
2023-07-25T15:49:11.432Z,9.00
2023-07-25T15:51:38.088Z,12.98
2023-07-25T15:54:05.347Z,9.57
2023-07-25T15:56:32.040Z,8.80
2023-07-25T15:58:58.708Z,10.25
2023-07-25T16:01:26.724Z,9.18
2023-07-25T16:03:53.786Z,10.13
2023-07-25T16:06:20.612Z,8.55
2023-07-25T16:08:47.291Z,11.60
2023-07-25T16:11:16.897Z,7.72
2023-07-25T16:13:43.544Z,16.50
2023-07-25T16:16:11.131Z,12.70
2023-07-25T16:18:42.515Z,10.77
2023-07-25T16:21:10.033Z,11.82
2023-07-25T16:23:36.741Z,10.27
2023-07-25T16:26:04.625Z,8.80
2023-07-25T16:28:31.562Z,9.63
2023-07-25T16:31:16.898Z,10.43
2023-07-25T16:33:45.024Z,14.25
2023-07-25T16:36:11.916Z,8.38
2023-07-25T16:38:38.813Z,7.90
2023-07-25T16:41:05.467Z,7.80
2023-07-25T16:43:33.117Z,7.43
2023-07-25T16:45:59.766Z,5.47
2023-07-25T16:48:27.284Z,7.47
2023-07-25T16:50:54.619Z,6.72
2023-07-25T16:53:21.226Z,8.00
2023-07-25T16:55:47.796Z,5.55
2023-07-25T16:58:14.602Z,9.23
2023-07-25T17:00:41.257Z,4.67
2023-07-25T17:03:08.916Z,4.75
2023-07-25T17:05:36.321Z,6.00
2023-07-25T17:08:04.389Z,5.65
2023-07-25T17:10:31.639Z,4.15
2023-07-25T17:12:58.902Z,5.82
2023-07-25T17:15:25.658Z,5.05
2023-07-25T17:17:52.365Z,3.58
2023-07-25T17:20:22.485Z,5.28
2023-07-25T17:22:49.208Z,2.97
2023-07-25T17:25:16.122Z,3.80
2023-07-25T17:27:43.696Z,3.20
2023-07-25T17:30:14.292Z,4.20
2023-07-25T17:32:41.068Z,4.55
2023-07-25T17:35:10.929Z,4.70
2023-07-25T17:37:41.583Z,4.80
2023-07-25T17:40:11.973Z,5.07
2023-07-25T17:42:38.809Z,5.95
2023-07-25T17:45:05.871Z,5.38
2023-07-25T17:47:33.619Z,3.70
2023-07-25T17:50:00.691Z,4.18
2023-07-25T17:52:27.700Z,5.00
2023-07-25T17:54:55.277Z,6.40
2023-07-25T17:57:22.077Z,5.90
2023-07-25T17:59:48.723Z,6.05
2023-07-25T18:02:16.053Z,9.55
2023-07-25T18:04:44.340Z,4.20
2023-07-25T18:07:11.463Z,4.53
2023-07-25T18:09:38.257Z,6.05
2023-07-25T18:12:05.774Z,6.60
2023-07-25T18:14:32.424Z,4.63
2023-07-25T18:16:59.893Z,5.20
2023-07-25T18:19:26.594Z,4.25
2023-07-25T18:21:53.339Z,5.53
2023-07-25T18:24:20.384Z,3.97
2023-07-25T18:26:47.437Z,4.40
2023-07-25T18:29:14.055Z,4.07
2023-07-25T18:31:40.814Z,4.53
2023-07-25T18:34:07.602Z,3.63
2023-07-25T18:36:34.204Z,5.20
2023-07-25T18:39:02.053Z,4.60
2023-07-25T18:41:28.905Z,7.03
2023-07-25T18:43:55.540Z,4.75
2023-07-25T18:46:22.475Z,5.10
2023-07-25T18:48:49.867Z,6.50
2023-07-25T18:51:16.777Z,5.03
2023-07-25T18:53:44.287Z,5.40
2023-07-25T18:56:10.922Z,3.33
2023-07-25T18:58:42.740Z,4.55
2023-07-25T19:01:09.530Z,7.03
2023-07-25T19:03:36.272Z,4.55
2023-07-25T19:06:03.034Z,4.70
2023-07-25T19:08:30.582Z,4.13
2023-07-25T19:10:57.417Z,5.93
2023-07-25T19:13:24.094Z,4.50
2023-07-25T19:15:50.998Z,7.25
2023-07-25T19:18:18.737Z,5.90
2023-07-25T19:20:45.545Z,5.03
2023-07-25T19:23:25.024Z,4.05
2023-07-25T19:26:01.188Z,5.88
2023-07-25T19:28:29.045Z,5.03
2023-07-25T19:30:57.561Z,6.22
2023-07-25T19:33:25.715Z,3.92
2023-07-25T19:35:55.812Z,4.65
2023-07-25T19:38:27.800Z,5.47
2023-07-25T19:40:55.074Z,4.38
2023-07-25T19:43:22.312Z,6.18
2023-07-25T19:45:49.054Z,5.43
2023-07-25T19:48:17.743Z,5.90
2023-07-25T19:50:46.946Z,4.90
2023-07-25T19:53:14.871Z,4.25
2023-07-25T19:55:42.098Z,4.07
2023-07-25T19:58:08.767Z,6.30
2023-07-25T20:00:37.292Z,4.60
2023-07-25T20:03:04.280Z,5.05
2023-07-25T20:05:31.300Z,5.00
2023-07-25T20:07:58.027Z,4.38
2023-07-25T20:10:24.707Z,7.80
2023-07-25T20:12:52.025Z,8.00
2023-07-25T20:15:19.882Z,5.57
2023-07-25T20:17:48.243Z,5.82
2023-07-25T20:20:16.000Z,6.68
2023-07-25T20:22:42.707Z,5.80
2023-07-25T20:25:11.245Z,6.57
2023-07-25T20:27:38.824Z,5.32
2023-07-25T20:30:06.470Z,5.25
2023-07-25T20:32:34.133Z,4.47
2023-07-25T20:35:00.914Z,6.07
2023-07-25T20:37:28.963Z,6.15
2023-07-25T20:39:56.476Z,6.13
2023-07-25T20:42:23.291Z,9.70
2023-07-25T20:44:50.065Z,5.53
2023-07-25T20:47:17.715Z,6.35
2023-07-25T20:49:44.764Z,6.97
2023-07-25T20:52:11.609Z,4.28
2023-07-25T20:54:38.358Z,6.65
2023-07-25T20:57:05.666Z,5.80
2023-07-25T20:59:32.305Z,6.13
2023-07-25T21:01:59.067Z,6.43
2023-07-25T21:04:28.591Z,5.50
2023-07-25T21:06:55.707Z,12.48
2023-07-25T21:09:22.994Z,5.72
2023-07-25T21:11:49.658Z,5.10
2023-07-25T21:14:16.329Z,5.32
2023-07-25T21:16:43.599Z,4.00
2023-07-25T21:19:10.969Z,5.38
2023-07-25T21:21:37.702Z,6.07
2023-07-25T21:24:04.719Z,5.32
2023-07-25T21:26:32.175Z,5.93
2023-07-25T21:28:59.190Z,7.72
2023-07-25T21:31:26.869Z,7.30
2023-07-25T21:33:53.726Z,9.05
2023-07-25T21:36:20.750Z,6.40
2023-07-25T21:38:47.474Z,7.78
2023-07-25T21:41:15.696Z,6.15
2023-07-25T21:43:43.387Z,5.88
2023-07-25T21:46:10.590Z,5.70
2023-07-25T21:48:41.185Z,6.18
2023-07-25T21:51:09.416Z,4.93
2023-07-25T21:53:36.061Z,6.22
2023-07-25T21:56:03.006Z,7.80
2023-07-25T21:58:29.747Z,5.75
2023-07-25T22:01:00.446Z,6.80
2023-07-25T22:03:31.220Z,6.65
2023-07-25T22:06:01.052Z,6.32
2023-07-25T22:08:28.149Z,7.38
2023-07-25T22:10:56.215Z,5.30
2023-07-25T22:13:23.993Z,6.15
2023-07-25T22:15:50.694Z,6.55
2023-07-25T22:18:17.555Z,5.15
2023-07-25T22:20:51.865Z,5.68
2023-07-25T22:23:20.229Z,5.22
2023-07-25T22:25:47.060Z,6.55
2023-07-25T22:28:13.888Z,5.28
2023-07-25T22:30:41.346Z,7.65
2023-07-25T22:33:08.713Z,6.72
2023-07-25T22:35:35.698Z,6.07
2023-07-25T22:38:04.400Z,8.70
2023-07-25T22:40:31.879Z,5.57
2023-07-25T22:42:58.933Z,6.18
2023-07-25T22:45:29.479Z,5.45
2023-07-25T22:47:56.555Z,5.78
2023-07-25T22:50:23.706Z,5.82
2023-07-25T22:52:50.726Z,5.18
2023-07-25T22:55:19.901Z,5.35
2023-07-25T22:57:46.659Z,5.38
2023-07-25T23:00:14.091Z,6.88
2023-07-25T23:02:41.445Z,6.97
2023-07-25T23:05:08.762Z,5.38
2023-07-25T23:07:35.645Z,4.60
2023-07-25T23:10:03.058Z,8.25
2023-07-25T23:12:29.831Z,5.70
2023-07-25T23:14:56.685Z,4.90
2023-07-25T23:17:24.312Z,4.60
2023-07-25T23:19:51.198Z,4.03
2023-07-25T23:22:18.034Z,6.07
2023-07-25T23:24:45.743Z,5.88
2023-07-25T23:27:12.470Z,8.35
2023-07-25T23:29:39.177Z,6.40
2023-07-25T23:32:06.410Z,5.18
2023-07-25T23:34:45.234Z,7.57
2023-07-25T23:37:12.022Z,5.68
2023-07-25T23:39:39.197Z,6.28
2023-07-25T23:42:06.256Z,5.55
2023-07-25T23:44:33.842Z,6.00
2023-07-25T23:47:00.632Z,7.00
2023-07-25T23:49:28.573Z,4.57
2023-07-25T23:51:55.776Z,5.55
2023-07-25T23:54:22.518Z,5.97
2023-07-25T23:56:49.778Z,6.72
2023-07-25T23:59:16.567Z,7.20
